Time;durP1;ratioP1;P1;durP2;ratioP2;P2;SDS_P1;SDS_P2;PMS_P1;PMS_P2;Temp;Humidity;BMP_temperature;BMP_pressure;BME280_temperature;BME280_humidity;BME280_pressure;Samples;Min_cycle;Max_cycle;Signal;HPM_P1;HPM_P2
2022/10/20 00:00:57;;;;;;;8.48;4.30;;;6.60;99.90;;;;;;4931311;29;20458;-69
2022/10/20 00:03:23;;;;;;;10.32;4.88;;;6.60;99.90;;;;;;4929803;29;20060;-69
2022/10/20 00:05:49;;;;;;;22.33;13.73;;;6.60;99.90;;;;;;4930434;29;20047;-69
2022/10/20 00:08:15;;;;;;;9.63;4.88;;;6.60;99.90;;;;;;4931666;29;20043;-69
2022/10/20 00:10:41;;;;;;;33.78;5.53;;;6.60;99.90;;;;;;4929488;29;20043;-69
2022/10/20 00:13:07;;;;;;;27.65;13.68;;;6.60;99.90;;;;;;4929860;29;20052;-69
2022/10/20 00:15:33;;;;;;;11.35;5.18;;;6.60;99.90;;;;;;4931422;29;20412;-68
2022/10/20 00:18:00;;;;;;;7.00;3.28;;;6.70;99.90;;;;;;4930304;29;20054;-68
2022/10/20 00:20:26;;;;;;;30.00;13.30;;;6.60;99.90;;;;;;4929654;29;20040;-69
2022/10/20 00:22:51;;;;;;;10.52;4.85;;;6.60;99.90;;;;;;4929867;29;20131;-69
2022/10/20 00:25:17;;;;;;;11.43;3.35;;;6.50;99.90;;;;;;4929574;29;20056;-69
2022/10/20 00:27:43;;;;;;;10.68;3.92;;;6.60;99.90;;;;;;4930493;29;20056;-69
2022/10/20 00:30:09;;;;;;;22.27;13.70;;;6.50;99.90;;;;;;4929457;29;20048;-69
2022/10/20 00:32:34;;;;;;;6.78;4.22;;;6.50;99.90;;;;;;4930802;29;20059;-69
2022/10/20 00:35:00;;;;;;;14.93;4.35;;;6.50;99.90;;;;;;4929075;29;20082;-69
2022/10/20 00:37:25;;;;;;;5.13;3.55;;;6.40;99.90;;;;;;4931051;29;20167;-69
2022/10/20 00:39:51;;;;;;;24.90;13.60;;;6.40;99.90;;;;;;4929113;29;20528;-69
2022/10/20 00:42:18;;;;;;;6.65;3.47;;;6.40;99.90;;;;;;4945838;29;20051;-69
2022/10/20 00:44:58;;;;;;;8.98;3.08;;;6.40;99.90;;;;;;4940990;29;20059;-69
2022/10/20 00:47:49;;;;;;;24.63;12.90;;;6.30;99.90;;;;;;4919730;29;20065;-69
2022/10/20 00:50:28;;;;;;;8.52;5.07;;;6.30;99.90;;;;;;4928869;29;20098;-69
2022/10/20 00:52:55;;;;;;;9.50;4.35;;;6.30;99.90;;;;;;4929257;29;20058;-69
2022/10/20 00:55:28;;;;;;;14.00;4.20;;;6.30;99.90;;;;;;4928987;29;20047;-69
2022/10/20 00:57:56;;;;;;;5.43;3.17;;;6.30;99.90;;;;;;4929618;29;20103;-69
2022/10/20 01:00:22;;;;;;;12.80;3.70;;;6.30;99.90;;;;;;4936893;29;20076;-70
2022/10/20 01:02:53;;;;;;;12.18;4.43;;;6.30;99.90;;;;;;4930258;29;20078;-69
2022/10/20 01:05:19;;;;;;;4.32;3.92;;;6.30;99.90;;;;;;4929423;29;20051;-69
2022/10/20 01:07:46;;;;;;;7.32;3.97;;;6.30;99.90;;;;;;4928886;29;20397;-68
2022/10/20 01:10:13;;;;;;;15.25;4.57;;;6.30;99.90;;;;;;4929448;29;20054;-68
2022/10/20 01:13:05;;;;;;;15.52;11.98;;;6.30;99.90;;;;;;4928116;29;20125;-69
2022/10/20 01:15:54;;;;;;;27.08;14.00;;;6.40;99.90;;;;;;4926270;29;20062;-68
2022/10/20 01:18:45;;;;;;;10.52;3.65;;;6.40;99.90;;;;;;4928471;29;20126;-68
2022/10/20 01:21:38;;;;;;;8.85;4.00;;;6.40;99.90;;;;;;4929301;29;20062;-69
2022/10/20 01:24:49;;;;;;;33.67;13.93;;;6.30;99.90;;;;;;4926866;29;20048;-69
2022/10/20 01:27:31;;;;;;;7.80;4.07;;;6.30;99.90;;;;;;4925374;29;20055;-68
2022/10/20 01:30:23;;;;;;;17.55;5.40;;;6.20;99.90;;;;;;4930337;29;20066;-69
2022/10/20 01:33:06;;;;;;;7.78;4.57;;;6.10;99.90;;;;;;4930726;29;20063;-69
2022/10/20 01:35:53;;;;;;;7.95;4.22;;;6.20;99.90;;;;;;4933115;29;20059;-69
2022/10/20 01:38:28;;;;;;;9.05;4.30;;;6.10;99.90;;;;;;4933365;29;20069;-68
2022/10/20 01:41:17;;;;;;;5.38;3.10;;;6.20;99.90;;;;;;4934115;29;20055;-68
2022/10/20 01:43:45;;;;;;;23.27;15.90;;;6.20;99.90;;;;;;4933242;29;20051;-68
2022/10/20 01:46:13;;;;;;;25.50;6.40;;;6.20;99.90;;;;;;4932999;29;20171;-68
2022/10/20 01:48:39;;;;;;;10.53;5.70;;;6.20;99.90;;;;;;4932153;29;20054;-68
2022/10/20 01:51:05;;;;;;;10.73;3.67;;;6.20;99.90;;;;;;4934190;29;20343;-68
2022/10/20 01:53:32;;;;;;;6.75;4.05;;;6.10;99.90;;;;;;4932678;29;20056;-68
2022/10/20 01:55:59;;;;;;;19.92;14.13;;;6.00;99.90;;;;;;4934410;29;20039;-68
2022/10/20 01:58:28;;;;;;;13.98;6.13;;;6.10;99.90;;;;;;4945807;28;20123;-69
2022/10/20 02:00:58;;;;;;;12.93;4.00;;;6.30;99.90;;;;;;4936169;29;20062;-69
2022/10/20 02:03:26;;;;;;;24.70;15.57;;;6.10;99.90;;;;;;4932569;29;20400;-69
2022/10/20 02:06:17;;;;;;;5.18;3.60;;;6.10;99.90;;;;;;4933260;29;20055;-69
2022/10/20 02:08:45;;;;;;;34.50;17.42;;;6.10;99.90;;;;;;4932365;29;20507;-69
2022/10/20 02:11:26;;;;;;;17.52;5.32;;;6.10;99.90;;;;;;4948064;29;20424;-69
2022/10/20 02:13:54;;;;;;;5.93;4.05;;;6.10;99.90;;;;;;4923890;29;20048;-69
2022/10/20 02:16:32;;;;;;;27.98;15.80;;;6.00;99.90;;;;;;4948985;29;20125;-69
2022/10/20 02:19:00;;;;;;;25.48;16.48;;;6.10;99.90;;;;;;4933555;29;20529;-69
2022/10/20 02:21:27;;;;;;;11.32;5.50;;;6.00;99.90;;;;;;4949059;29;20755;-69
2022/10/20 02:23:55;;;;;;;36.85;15.32;;;6.00;99.90;;;;;;4933260;29;20051;-69
2022/10/20 02:26:24;;;;;;;16.52;7.20;;;6.10;99.90;;;;;;4933703;29;20416;-69
2022/10/20 02:28:56;;;;;;;27.88;6.68;;;6.00;99.90;;;;;;4931327;29;20063;-69
2022/10/20 02:31:23;;;;;;;6.75;5.22;;;6.00;99.90;;;;;;4932179;29;20089;-69
2022/10/20 02:33:50;;;;;;;13.27;5.07;;;6.00;99.90;;;;;;4932291;29;20060;-69
2022/10/20 02:36:18;;;;;;;17.95;5.30;;;6.00;99.90;;;;;;4933916;29;20122;-69
2022/10/20 02:38:43;;;;;;;26.73;16.55;;;6.00;99.90;;;;;;4931648;29;20083;-69
2022/10/20 02:41:09;;;;;;;16.75;6.75;;;6.00;99.90;;;;;;4932510;29;20102;-69
2022/10/20 02:43:35;;;;;;;24.40;16.52;;;6.00;99.90;;;;;;4931282;29;20048;-69
2022/10/20 02:46:01;;;;;;;10.80;5.95;;;6.00;99.90;;;;;;4928508;29;20086;-69
2022/10/20 02:48:28;;;;;;;11.60;5.03;;;6.00;99.90;;;;;;4924734;29;20060;-70
2022/10/20 02:50:54;;;;;;;36.67;19.60;;;5.90;99.90;;;;;;4932101;29;20044;-69
2022/10/20 02:53:19;;;;;;;35.17;17.88;;;5.90;99.90;;;;;;4932052;29;20059;-69
2022/10/20 02:55:45;;;;;;;15.63;6.00;;;6.00;99.90;;;;;;4931765;29;20548;-70
2022/10/20 02:58:11;;;;;;;11.10;5.22;;;5.90;99.90;;;;;;4931250;29;20500;-69
2022/10/20 03:00:36;;;;;;;11.55;4.63;;;5.90;99.90;;;;;;4934761;29;20051;-69
2022/10/20 03:03:02;;;;;;;17.50;6.97;;;5.90;99.90;;;;;;4930323;29;20095;-70
2022/10/20 03:05:28;;;;;;;14.80;7.28;;;5.80;99.90;;;;;;4932636;29;20412;-69
2022/10/20 03:07:54;;;;;;;40.20;20.38;;;5.90;99.90;;;;;;4931670;29;20106;-69
2022/10/20 03:10:19;;;;;;;15.40;6.75;;;5.80;99.90;;;;;;4930948;29;20040;-69
2022/10/20 03:12:45;;;;;;;13.52;7.40;;;5.80;99.90;;;;;;4931357;29;20089;-69
2022/10/20 03:15:11;;;;;;;10.80;5.50;;;5.70;99.90;;;;;;4932128;29;20051;-69
2022/10/20 03:17:36;;;;;;;10.73;4.50;;;5.70;99.90;;;;;;4931473;29;20079;-70
2022/10/20 03:20:06;;;;;;;30.00;19.05;;;5.70;99.90;;;;;;4931918;29;20131;-69
2022/10/20 03:22:32;;;;;;;16.40;6.35;;;5.70;99.90;;;;;;4930939;29;20094;-69
2022/10/20 03:24:58;;;;;;;36.08;21.05;;;5.70;99.90;;;;;;4931451;29;20047;-69
2022/10/20 03:27:23;;;;;;;38.80;21.15;;;5.70;99.90;;;;;;4946459;29;20126;-69
2022/10/20 03:29:49;;;;;;;26.27;8.38;;;5.70;99.90;;;;;;4930731;29;20075;-69
2022/10/20 03:32:15;;;;;;;29.65;5.82;;;5.70;99.90;;;;;;4931213;29;20130;-69
2022/10/20 03:34:40;;;;;;;15.95;6.13;;;5.70;99.90;;;;;;4931113;29;20059;-69
2022/10/20 03:37:06;;;;;;;15.75;7.43;;;5.70;99.90;;;;;;4930366;29;20079;-69
2022/10/20 03:39:31;;;;;;;15.52;5.75;;;5.70;99.90;;;;;;4930975;29;20046;-69
2022/10/20 03:41:57;;;;;;;15.00;6.53;;;5.70;99.90;;;;;;4931216;29;20052;-69
2022/10/20 03:44:24;;;;;;;42.85;23.85;;;5.70;99.90;;;;;;4946645;29;20576;-69
2022/10/20 03:46:49;;;;;;;20.20;10.05;;;5.70;99.90;;;;;;4931463;29;20067;-69
2022/10/20 03:49:15;;;;;;;13.82;6.82;;;5.70;99.90;;;;;;4930866;29;20420;-69
2022/10/20 03:51:40;;;;;;;10.82;6.05;;;5.70;99.90;;;;;;4929810;29;20059;-69
2022/10/20 03:54:06;;;;;;;18.92;7.68;;;5.70;99.90;;;;;;4930416;29;20060;-69
2022/10/20 03:56:32;;;;;;;44.50;24.90;;;5.70;99.90;;;;;;4929712;29;20043;-69
2022/10/20 03:58:58;;;;;;;40.70;24.67;;;5.80;99.90;;;;;;4929830;29;20047;-69
2022/10/20 04:01:29;;;;;;;14.75;7.05;;;5.80;99.90;;;;;;4930666;29;20047;-69
2022/10/20 04:03:55;;;;;;;12.40;8.50;;;5.90;99.90;;;;;;4931006;29;20396;-69
2022/10/20 04:06:21;;;;;;;12.68;5.75;;;5.80;99.90;;;;;;4930461;29;20052;-69
2022/10/20 04:08:47;;;;;;;10.02;5.25;;;5.80;99.90;;;;;;4946271;29;20043;-69
2022/10/20 04:11:13;;;;;;;14.93;7.72;;;5.90;99.90;;;;;;4929496;29;20058;-69
2022/10/20 04:13:38;;;;;;;14.85;6.78;;;5.80;99.90;;;;;;4929571;29;20062;-69
2022/10/20 04:16:04;;;;;;;14.90;7.80;;;5.80;99.90;;;;;;4930284;29;20051;-69
2022/10/20 04:18:31;;;;;;;16.27;7.88;;;5.90;99.90;;;;;;4931290;29;20055;-69
2022/10/20 04:20:57;;;;;;;13.40;8.25;;;5.70;99.90;;;;;;4931754;29;20056;-69
2022/10/20 04:23:22;;;;;;;19.60;8.88;;;5.70;99.90;;;;;;4929901;29;20131;-69
2022/10/20 04:25:48;;;;;;;40.20;25.42;;;5.70;99.90;;;;;;4931299;29;20322;-69
2022/10/20 04:28:15;;;;;;;16.17;8.48;;;5.70;99.90;;;;;;4944553;29;20052;-69
2022/10/20 04:30:42;;;;;;;18.20;8.07;;;5.70;99.90;;;;;;4930641;29;20499;-69
2022/10/20 04:33:07;;;;;;;20.20;8.85;;;5.70;99.90;;;;;;4931039;29;20229;-69
2022/10/20 04:35:33;;;;;;;23.88;11.23;;;5.70;99.90;;;;;;4930143;29;20138;-69
2022/10/20 04:37:59;;;;;;;11.25;6.97;;;5.60;99.90;;;;;;4930696;29;20052;-69
2022/10/20 04:40:25;;;;;;;56.85;29.52;;;5.60;99.90;;;;;;4929275;29;20044;-69
2022/10/20 04:42:50;;;;;;;50.42;27.63;;;5.60;99.90;;;;;;4929643;29;20066;-69
2022/10/20 04:45:16;;;;;;;48.90;28.65;;;5.70;99.90;;;;;;4928368;29;20044;-69
2022/10/20 04:47:42;;;;;;;57.30;30.33;;;5.70;99.90;;;;;;4945338;29;20127;-69
2022/10/20 04:50:08;;;;;;;26.40;10.70;;;5.70;99.90;;;;;;4931005;29;20051;-69
2022/10/20 04:52:34;;;;;;;50.83;29.10;;;5.70;99.90;;;;;;4944900;28;20036;-69
2022/10/20 04:54:59;;;;;;;29.95;10.65;;;5.60;99.90;;;;;;4929700;29;20102;-69
2022/10/20 04:57:26;;;;;;;11.98;6.82;;;5.60;99.90;;;;;;4945158;29;20047;-69
2022/10/20 04:59:51;;;;;;;13.82;7.07;;;5.60;99.90;;;;;;4930151;29;20051;-69
2022/10/20 05:02:17;;;;;;;24.58;10.60;;;5.60;99.90;;;;;;4930542;29;20172;-69
2022/10/20 05:04:43;;;;;;;19.40;10.43;;;5.70;99.90;;;;;;4929707;29;20387;-69
2022/10/20 05:07:08;;;;;;;18.63;8.32;;;5.50;99.90;;;;;;4945319;28;20401;-68
2022/10/20 05:09:34;;;;;;;49.78;30.10;;;5.50;99.90;;;;;;4944514;28;20775;-69
2022/10/20 05:12:00;;;;;;;56.60;30.23;;;5.60;99.90;;;;;;4925943;29;20048;-69
2022/10/20 05:14:25;;;;;;;22.48;11.10;;;5.50;99.90;;;;;;4922097;29;20501;-70
2022/10/20 05:16:51;;;;;;;19.05;8.13;;;5.50;99.90;;;;;;4929221;29;20142;-69
2022/10/20 05:19:17;;;;;;;21.63;9.20;;;5.50;99.90;;;;;;4929885;29;20863;-69
2022/10/20 05:21:42;;;;;;;15.75;9.20;;;5.40;99.90;;;;;;4928694;29;20420;-68
2022/10/20 05:24:13;;;;;;;58.67;32.67;;;5.50;99.90;;;;;;4930575;29;20138;-69
2022/10/20 05:26:39;;;;;;;20.33;10.18;;;5.50;99.90;;;;;;4945443;29;20059;-69
2022/10/20 05:29:07;;;;;;;15.52;8.82;;;5.50;99.90;;;;;;4928731;29;20059;-69
2022/10/20 05:31:41;;;;;;;18.00;9.70;;;5.40;99.90;;;;;;4928525;29;20135;-69
2022/10/20 05:34:08;;;;;;;58.20;32.22;;;5.50;99.90;;;;;;4929679;29;20492;-71
2022/10/20 05:36:34;;;;;;;22.38;9.60;;;5.50;99.90;;;;;;4925799;29;20036;-70
2022/10/20 05:39:00;;;;;;;58.10;32.90;;;5.50;99.90;;;;;;4941782;28;20098;-69
2022/10/20 05:41:27;;;;;;;31.52;10.77;;;5.50;99.90;;;;;;4929231;29;20047;-68
2022/10/20 05:43:59;;;;;;;19.77;8.40;;;5.50;99.90;;;;;;4930126;29;20056;-68
2022/10/20 05:46:26;;;;;;;54.20;34.00;;;5.50;99.90;;;;;;4929931;29;20098;-68
2022/10/20 05:48:55;;;;;;;24.87;8.97;;;5.50;99.90;;;;;;4927275;29;20044;-68
2022/10/20 05:51:26;;;;;;;24.75;13.13;;;5.60;99.90;;;;;;4930079;29;20755;-68
2022/10/20 05:53:54;;;;;;;22.15;12.18;;;5.60;99.90;;;;;;4942681;29;20424;-68
2022/10/20 05:56:20;;;;;;;61.88;33.22;;;5.60;99.90;;;;;;4929567;29;20106;-68
2022/10/20 05:58:47;;;;;;;20.05;8.90;;;5.60;99.90;;;;;;4930551;29;20092;-68
2022/10/20 06:01:20;;;;;;;31.60;11.60;;;5.60;99.90;;;;;;4932614;28;20054;-67
2022/10/20 06:03:56;;;;;;;32.38;11.57;;;5.70;99.90;;;;;;4927437;29;20047;-68
2022/10/20 06:06:25;;;;;;;62.78;34.15;;;5.70;99.90;;;;;;4930229;29;20509;-68
2022/10/20 06:08:52;;;;;;;21.80;9.95;;;5.70;99.90;;;;;;4929939;29;20056;-68
2022/10/20 06:11:18;;;;;;;31.67;9.95;;;5.70;99.90;;;;;;4927143;29;20099;-68
2022/10/20 06:13:45;;;;;;;23.33;11.73;;;5.70;99.90;;;;;;4929744;29;20119;-68
2022/10/20 06:16:13;;;;;;;18.63;10.63;;;5.70;99.90;;;;;;4929996;29;20477;-68
2022/10/20 06:18:44;;;;;;;21.13;9.85;;;5.60;99.90;;;;;;4931338;29;20094;-67
2022/10/20 06:21:18;;;;;;;56.53;35.92;;;5.80;99.90;;;;;;4932149;29;20051;-68
2022/10/20 06:23:44;;;;;;;13.07;7.72;;;5.80;99.90;;;;;;4932976;29;20592;-67
2022/10/20 06:26:18;;;;;;;28.10;11.65;;;5.80;99.90;;;;;;4933335;29;20134;-67
2022/10/20 06:28:46;;;;;;;57.63;34.45;;;5.80;99.90;;;;;;4931585;29;20143;-67
2022/10/20 06:31:16;;;;;;;45.70;12.73;;;5.90;99.90;;;;;;4932296;29;20443;-67
2022/10/20 06:33:42;;;;;;;63.78;36.35;;;5.90;99.90;;;;;;4932134;29;20291;-67
2022/10/20 06:36:09;;;;;;;59.85;34.38;;;5.90;99.90;;;;;;4915766;29;20044;-67
2022/10/20 06:38:35;;;;;;;25.77;11.35;;;5.90;99.90;;;;;;4947199;28;20056;-67
2022/10/20 06:41:05;;;;;;;67.60;36.13;;;6.00;99.90;;;;;;4931046;29;20066;-67
2022/10/20 06:43:32;;;;;;;19.52;9.65;;;6.00;99.90;;;;;;4947785;29;20134;-67
2022/10/20 06:46:01;;;;;;;66.00;37.17;;;6.10;99.90;;;;;;4932632;29;20934;-67
2022/10/20 06:48:27;;;;;;;60.80;33.92;;;6.10;99.90;;;;;;4933012;29;20154;-67
2022/10/20 06:50:57;;;;;;;25.52;10.10;;;6.60;99.90;;;;;;4932062;29;20043;-67
2022/10/20 06:53:24;;;;;;;32.30;11.77;;;6.20;99.90;;;;;;4929360;29;20046;-67
2022/10/20 06:56:01;;;;;;;66.38;36.95;;;6.20;99.90;;;;;;4931989;29;20052;-67
2022/10/20 06:58:27;;;;;;;61.25;35.35;;;6.20;99.90;;;;;;4937262;29;20054;-67
2022/10/20 07:00:58;;;;;;;27.08;12.73;;;6.20;99.90;;;;;;4933780;29;20052;-67
2022/10/20 07:03:24;;;;;;;34.80;13.82;;;6.20;99.90;;;;;;4933195;29;20043;-67
2022/10/20 07:05:51;;;;;;;59.78;37.10;;;6.20;99.90;;;;;;4933910;29;20058;-67
2022/10/20 07:08:16;;;;;;;21.27;9.65;;;6.30;99.90;;;;;;4930640;29;20043;-67
2022/10/20 07:10:42;;;;;;;34.72;12.23;;;6.40;99.90;;;;;;4932237;29;20055;-67
2022/10/20 07:13:08;;;;;;;20.40;9.45;;;6.40;99.90;;;;;;4931898;29;20055;-67
2022/10/20 07:15:33;;;;;;;37.22;15.25;;;6.50;99.90;;;;;;4931845;29;20040;-67
2022/10/20 07:17:59;;;;;;;19.08;9.73;;;6.50;99.90;;;;;;4932448;28;20052;-67
2022/10/20 07:20:24;;;;;;;64.13;34.40;;;6.50;99.90;;;;;;4931620;29;20044;-67
2022/10/20 07:22:50;;;;;;;63.88;35.05;;;6.60;99.90;;;;;;4932063;29;20829;-67
2022/10/20 07:25:16;;;;;;;30.23;11.60;;;6.70;99.90;;;;;;4930693;29;20070;-67
2022/10/20 07:27:41;;;;;;;32.50;12.05;;;6.80;99.90;;;;;;4929969;29;20102;-67
2022/10/20 07:30:07;;;;;;;58.15;33.88;;;6.80;99.90;;;;;;4930980;29;20695;-67
2022/10/20 07:32:33;;;;;;;28.33;11.88;;;6.80;99.90;;;;;;4926140;29;20091;-67
2022/10/20 07:34:58;;;;;;;55.60;32.92;;;6.90;99.90;;;;;;4931640;29;20121;-67
2022/10/20 07:37:24;;;;;;;61.35;31.13;;;7.00;99.90;;;;;;4932052;29;20075;-67
2022/10/20 07:39:49;;;;;;;27.70;11.93;;;7.00;99.90;;;;;;4935037;29;20050;-67
2022/10/20 07:42:15;;;;;;;23.48;10.10;;;7.00;99.90;;;;;;4931622;29;20515;-67
2022/10/20 07:44:41;;;;;;;16.13;9.23;;;7.10;99.90;;;;;;4932276;29;20036;-67
2022/10/20 07:47:06;;;;;;;52.10;31.80;;;7.10;99.90;;;;;;4943102;29;20086;-67
2022/10/20 07:49:32;;;;;;;23.27;9.52;;;7.10;99.90;;;;;;4935125;29;20035;-67
2022/10/20 07:51:59;;;;;;;51.97;29.45;;;7.20;99.90;;;;;;4931883;29;20559;-67
2022/10/20 07:54:24;;;;;;;48.40;27.65;;;7.20;99.90;;;;;;4931528;29;20043;-69
2022/10/20 07:56:50;;;;;;;54.78;30.73;;;7.30;99.90;;;;;;4931826;29;20047;-67
2022/10/20 07:59:16;;;;;;;22.05;12.43;;;7.40;99.90;;;;;;4940120;29;20055;-69
2022/10/20 08:01:41;;;;;;;27.70;9.98;;;7.40;99.90;;;;;;4930838;29;20211;-68
2022/10/20 08:04:07;;;;;;;47.35;27.80;;;7.40;99.90;;;;;;4932051;29;20076;-70
2022/10/20 08:06:33;;;;;;;49.35;29.27;;;8.00;99.90;;;;;;4929103;29;20051;-70
2022/10/20 08:08:59;;;;;;;20.52;11.25;;;7.50;99.90;;;;;;4923063;29;20071;-68
2022/10/20 08:11:25;;;;;;;20.27;9.45;;;7.60;99.90;;;;;;4945994;29;20043;-69
2022/10/20 08:13:50;;;;;;;45.53;27.95;;;7.60;99.90;;;;;;4923448;29;20044;-69
2022/10/20 08:16:17;;;;;;;41.85;26.67;;;7.60;99.90;;;;;;4927290;29;20127;-71
2022/10/20 08:18:43;;;;;;;32.50;12.93;;;7.80;99.90;;;;;;4931186;29;20048;-68
2022/10/20 08:21:15;;;;;;;37.47;10.70;;;7.80;99.90;;;;;;4931300;29;20456;-71
2022/10/20 08:23:42;;;;;;;18.35;8.88;;;7.90;99.90;;;;;;4930879;29;20071;-68
2022/10/20 08:26:09;;;;;;;45.95;27.95;;;8.00;99.90;;;;;;4930161;29;20090;-68
2022/10/20 08:28:35;;;;;;;45.83;26.75;;;8.30;99.90;;;;;;4930001;29;20048;-67
2022/10/20 08:31:06;;;;;;;50.70;28.23;;;8.10;99.90;;;;;;4942332;28;20071;-68
2022/10/20 08:33:33;;;;;;;52.15;28.10;;;8.10;99.90;;;;;;4930472;29;20063;-68
2022/10/20 08:36:03;;;;;;;47.33;27.30;;;8.20;99.90;;;;;;4928318;29;20047;-68
2022/10/20 08:38:29;;;;;;;24.08;11.15;;;8.30;99.90;;;;;;4930731;28;20056;-68
2022/10/20 08:40:55;;;;;;;40.38;25.65;;;8.30;99.90;;;;;;4947766;28;20054;-67
2022/10/20 08:43:21;;;;;;;22.65;9.88;;;8.30;99.90;;;;;;4930895;29;20070;-68
2022/10/20 08:45:48;;;;;;;39.42;25.73;;;8.20;99.90;;;;;;4928278;29;20500;-68
2022/10/20 08:48:25;;;;;;;22.25;11.27;;;8.40;99.90;;;;;;4942955;29;20074;-67
2022/10/20 08:50:52;;;;;;;40.90;25.67;;;8.40;99.90;;;;;;4927471;29;20117;-68
2022/10/20 08:53:21;;;;;;;18.48;10.95;;;8.50;99.90;;;;;;4928888;29;20059;-67
2022/10/20 08:55:47;;;;;;;22.95;9.13;;;8.50;99.90;;;;;;4922872;29;20050;-68
2022/10/20 08:58:18;;;;;;;39.15;25.27;;;8.50;99.90;;;;;;4926557;29;20770;-68
2022/10/20 09:00:44;;;;;;;41.72;27.25;;;8.60;99.90;;;;;;4926462;29;20148;-68
2022/10/20 09:03:20;;;;;;;14.20;7.25;;;8.70;99.90;;;;;;4928636;29;20508;-68
2022/10/20 09:05:53;;;;;;;38.22;25.27;;;8.70;99.90;;;;;;4928086;29;20055;-68
2022/10/20 09:08:22;;;;;;;43.80;25.58;;;8.90;99.90;;;;;;4926736;29;20055;-68
2022/10/20 09:10:50;;;;;;;24.45;12.50;;;9.00;99.90;;;;;;4942188;29;20460;-68
2022/10/20 09:13:23;;;;;;;40.25;24.83;;;9.10;99.90;;;;;;4928526;29;20055;-68
2022/10/20 09:16:00;;;;;;;19.42;8.05;;;9.10;99.90;;;;;;4925324;29;21225;-69
2022/10/20 09:18:26;;;;;;;16.95;8.48;;;9.20;99.90;;;;;;4943011;28;20158;-68
2022/10/20 09:21:01;;;;;;;37.83;22.80;;;9.30;99.90;;;;;;4928494;29;20457;-68
2022/10/20 09:23:34;;;;;;;36.83;26.42;;;9.40;99.90;;;;;;4929818;29;20850;-68
2022/10/20 09:25:59;;;;;;;18.67;9.23;;;9.50;99.90;;;;;;4927354;29;20138;-69
2022/10/20 09:28:27;;;;;;;35.42;23.83;;;9.50;99.90;;;;;;4929495;29;20138;-69
2022/10/20 09:30:53;;;;;;;31.33;21.60;;;9.60;99.90;;;;;;4928600;29;20058;-68
2022/10/20 09:33:27;;;;;;;30.25;19.73;;;9.60;99.90;;;;;;4929435;29;20043;-68
2022/10/20 09:35:54;;;;;;;32.47;22.23;;;9.70;99.90;;;;;;4929366;29;20484;-68
2022/10/20 09:38:28;;;;;;;43.83;23.58;;;9.80;99.90;;;;;;4929557;29;20048;-68
2022/10/20 09:41:09;;;;;;;34.75;23.33;;;9.80;99.90;;;;;;4927937;29;20048;-68
2022/10/20 09:43:39;;;;;;;35.80;21.35;;;9.80;99.90;;;;;;4943612;29;20099;-69
2022/10/20 09:46:08;;;;;;;43.53;24.08;;;9.90;99.90;;;;;;4928958;29;20086;-68
2022/10/20 09:48:40;;;;;;;32.58;21.90;;;9.90;99.90;;;;;;4929994;29;20619;-69
2022/10/20 09:51:14;;;;;;;34.03;21.20;;;10.00;99.90;;;;;;4928306;29;20059;-68
2022/10/20 09:54:01;;;;;;;15.60;8.50;;;10.00;99.90;;;;;;4930479;29;20050;-69
2022/10/20 09:56:39;;;;;;;28.20;11.25;;;10.10;99.90;;;;;;4921351;29;20102;-68
2022/10/20 09:59:06;;;;;;;;;;;10.10;99.90;;;;;;4933174;29;20048;-68
2022/10/20 10:01:32;;;;;;;27.98;19.70;;;10.10;99.90;;;;;;4932235;29;19926;-68
2022/10/20 10:04:01;;;;;;;39.67;23.45;;;10.20;99.90;;;;;;4947114;28;20135;-68
2022/10/20 10:06:29;;;;;;;39.70;21.27;;;10.20;99.90;;;;;;4932322;29;20039;-68
2022/10/20 10:08:57;;;;;;;20.35;9.48;;;10.30;99.90;;;;;;4929924;29;20040;-68
2022/10/20 10:11:26;;;;;;;;;;;10.30;99.90;;;;;;4933166;29;20074;-68
2022/10/20 10:13:52;;;;;;;22.80;10.25;;;10.20;99.90;;;;;;4948880;28;19938;-68
2022/10/20 10:16:25;;;;;;;14.70;6.97;;;10.40;99.90;;;;;;4934285;29;20789;-69
2022/10/20 10:19:03;;;;;;;21.27;9.10;;;10.40;99.90;;;;;;4932957;29;20063;-68
2022/10/20 10:21:40;;;;;;;;;;;10.50;99.90;;;;;;4928150;29;20098;-69
2022/10/20 10:24:27;;;;;;;29.70;21.07;;;10.60;99.90;;;;;;4942415;29;20804;-69
2022/10/20 10:26:55;;;;;;;26.55;20.35;;;10.70;99.90;;;;;;4934562;29;20058;-69
2022/10/20 10:29:31;;;;;;;33.80;20.35;;;10.80;99.90;;;;;;4916605;29;20051;-69
2022/10/20 10:32:10;;;;;;;35.83;21.77;;;10.80;99.90;;;;;;4930772;29;20114;-70
2022/10/20 10:34:49;;;;;;;35.35;21.05;;;11.00;99.90;;;;;;4936190;29;20048;-69
2022/10/20 10:37:16;;;;;;;30.65;20.80;;;11.10;99.90;;;;;;4933412;29;20051;-69
2022/10/20 10:39:42;;;;;;;45.20;21.23;;;11.10;99.90;;;;;;4933368;29;20240;-70
2022/10/20 10:42:29;;;;;;;37.40;20.77;;;11.40;99.90;;;;;;4932919;29;20131;-69
2022/10/20 10:45:16;;;;;;;28.60;20.65;;;11.50;99.90;;;;;;4932621;29;20051;-70
2022/10/20 10:47:55;;;;;;;27.30;20.73;;;11.70;99.90;;;;;;4931941;29;20051;-71
2022/10/20 10:50:28;;;;;;;29.80;20.02;;;11.80;99.90;;;;;;4931862;29;20115;-70
2022/10/20 10:53:22;;;;;;;32.58;19.52;;;12.00;99.90;;;;;;4932439;29;20052;-69
2022/10/20 10:56:10;;;;;;;28.55;17.60;;;12.20;99.90;;;;;;4932670;29;20058;-69
2022/10/20 10:58:41;;;;;;;32.40;22.27;;;12.30;99.90;;;;;;4932818;29;20826;-70
2022/10/20 11:01:35;;;;;;;33.88;21.45;;;12.60;99.90;;;;;;4932513;29;20831;-70
2022/10/20 11:04:34;;;;;;;33.17;20.05;;;12.60;99.90;;;;;;4930307;29;20051;-69
2022/10/20 11:07:21;;;;;;;31.58;21.42;;;12.70;99.90;;;;;;4929137;29;20477;-70
2022/10/20 11:10:06;;;;;;;32.05;19.90;;;12.70;99.90;;;;;;4944311;29;20107;-69
2022/10/20 11:13:03;;;;;;;27.58;19.83;;;12.80;99.90;;;;;;4944070;29;20059;-69
2022/10/20 11:15:48;;;;;;;29.48;21.45;;;12.80;99.90;;;;;;4930883;29;20051;-69
2022/10/20 11:18:29;;;;;;;29.77;19.10;;;12.80;99.90;;;;;;4929614;29;20052;-69
2022/10/20 11:21:24;;;;;;;24.95;17.73;;;12.90;99.90;;;;;;4944535;29;20087;-71
2022/10/20 11:24:23;;;;;;;27.92;20.00;;;13.00;99.90;;;;;;4947264;29;20135;-71
2022/10/20 11:26:55;;;;;;;33.80;21.10;;;13.10;99.90;;;;;;4930363;29;20505;-70
2022/10/20 11:29:32;;;;;;;32.63;22.90;;;13.10;99.90;;;;;;4929079;29;20394;-72
2022/10/20 11:32:09;;;;;;;27.40;19.93;;;13.20;99.90;;;;;;4929950;29;20704;-69
2022/10/20 11:34:58;;;;;;;29.42;19.40;;;13.30;99.90;;;;;;4930444;29;20522;-69
2022/10/20 11:38:01;;;;;;;32.42;20.30;;;13.60;99.90;;;;;;4929494;29;20052;-69
2022/10/20 11:40:31;;;;;;;32.03;19.80;;;13.50;99.90;;;;;;4925479;29;20058;-69
2022/10/20 11:43:04;;;;;;;31.67;20.88;;;13.60;99.90;;;;;;4930797;29;21705;-70
2022/10/20 11:45:53;;;;;;;28.65;19.35;;;13.60;99.90;;;;;;4931474;29;20060;-69
2022/10/20 11:48:30;;;;;;;34.10;20.60;;;13.60;99.90;;;;;;4944383;29;20184;-69
2022/10/20 11:51:01;;;;;;;25.90;19.30;;;13.60;99.90;;;;;;4929072;29;20060;-69
2022/10/20 11:53:51;;;;;;;42.40;22.08;;;13.60;99.90;;;;;;4945820;28;20095;-69
2022/10/20 11:56:39;;;;;;;31.40;20.85;;;13.60;99.90;;;;;;4931217;29;20201;-69
2022/10/20 11:59:34;;;;;;;24.98;18.30;;;13.60;99.90;;;;;;4924312;29;20252;-69
2022/10/20 12:02:31;;;;;;;28.67;20.52;;;13.60;99.90;;;;;;4929975;29;20043;-69
2022/10/20 12:04:59;;;;;;;28.27;20.92;;;13.60;99.90;;;;;;4927475;29;20086;-70
2022/10/20 12:07:26;;;;;;;;;;;13.60;99.90;;;;;;4946887;29;20778;-70
2022/10/20 12:10:40;;;;;;;32.42;21.23;;;13.60;99.90;;;;;;4930389;29;20026;-69
2022/10/20 12:13:36;;;;;;;27.88;20.52;;;13.50;99.90;;;;;;4871955;29;20053;-69
2022/10/20 12:16:01;;;;;;;31.30;23.25;;;13.60;99.90;;;;;;4858899;29;20559;-69
2022/10/20 12:18:28;;;;;;;36.58;21.35;;;13.50;99.90;;;;;;4910482;29;20063;-70
2022/10/20 12:21:09;;;;;;;29.38;19.92;;;13.60;99.90;;;;;;4931769;29;20048;-70
2022/10/20 12:23:44;;;;;;;33.47;22.60;;;13.50;99.90;;;;;;4930638;29;20870;-70
2022/10/20 12:26:28;;;;;;;28.50;19.83;;;13.50;99.90;;;;;;4930159;28;20062;-70
2022/10/20 12:28:58;;;;;;;32.22;21.67;;;13.60;99.90;;;;;;4931118;29;20063;-70
2022/10/20 12:31:44;;;;;;;31.23;21.08;;;13.50;99.90;;;;;;4930705;29;20126;-69
2022/10/20 12:34:22;;;;;;;37.90;23.70;;;13.50;99.90;;;;;;4930814;29;20556;-69
2022/10/20 12:36:47;;;;;;;28.17;21.85;;;13.50;99.90;;;;;;4930758;29;20104;-69
2022/10/20 12:39:17;;;;;;;31.05;20.35;;;13.40;99.90;;;;;;4930975;29;20122;-69
2022/10/20 12:41:54;;;;;;;28.38;20.35;;;13.60;99.90;;;;;;4930674;29;20572;-69
2022/10/20 12:44:21;;;;;;;45.87;21.40;;;13.40;99.90;;;;;;4929785;29;20047;-69
2022/10/20 12:47:05;;;;;;;36.50;23.55;;;13.40;99.90;;;;;;4930647;29;20039;-69
2022/10/20 12:49:42;;;;;;;31.50;21.00;;;13.30;99.90;;;;;;4930753;29;20040;-70
2022/10/20 12:52:18;;;;;;;31.38;21.23;;;13.30;99.90;;;;;;4929863;29;20127;-70
2022/10/20 12:54:45;;;;;;;34.20;23.13;;;13.30;99.90;;;;;;4930814;29;20408;-70
2022/10/20 12:57:40;;;;;;;30.38;22.83;;;13.20;99.90;;;;;;4931017;29;20058;-69
2022/10/20 13:00:25;;;;;;;37.53;23.70;;;13.20;99.90;;;;;;4929192;29;20055;-69